createdAt,value
2017-11-16T00:00:00.244Z,22.70
2017-11-16T00:02:28.416Z,21.25
2017-11-16T00:05:00.275Z,20.65
2017-11-16T00:07:28.447Z,15.88
2017-11-16T00:09:56.643Z,17.17
2017-11-16T00:12:24.798Z,17.55
2017-11-16T00:14:55.010Z,18.08
2017-11-16T00:17:23.190Z,18.33
2017-11-16T00:19:51.362Z,17.27
2017-11-16T00:22:19.542Z,20.25
2017-11-16T00:24:48.726Z,19.95
2017-11-16T00:27:16.895Z,16.55
2017-11-16T00:29:45.062Z,15.55
2017-11-16T00:32:15.211Z,14.13
2017-11-16T00:34:44.507Z,17.70
2017-11-16T00:37:12.675Z,25.02
2017-11-16T00:39:40.820Z,16.30
2017-11-16T00:42:09.001Z,19.30
2017-11-16T00:44:38.048Z,16.87
2017-11-16T00:47:07.588Z,22.17
2017-11-16T00:49:35.769Z,15.35
2017-11-16T00:52:03.927Z,19.05
2017-11-16T00:54:32.139Z,20.95
2017-11-16T00:57:00.319Z,18.70
2017-11-16T00:59:29.262Z,20.45
2017-11-16T01:01:57.434Z,24.02
2017-11-16T01:04:29.548Z,16.98
2017-11-16T01:06:58.030Z,20.12
2017-11-16T01:09:32.618Z,20.33
2017-11-16T01:12:00.779Z,17.98
2017-11-16T01:14:29.017Z,24.45
2017-11-16T01:16:57.173Z,16.67
2017-11-16T01:19:26.131Z,16.90
2017-11-16T01:21:54.293Z,19.12
2017-11-16T01:24:26.840Z,21.83
2017-11-16T01:26:54.995Z,18.23
2017-11-16T01:29:26.237Z,22.17
2017-11-16T01:31:54.412Z,19.85
2017-11-16T01:34:28.338Z,22.42
2017-11-16T01:36:56.488Z,18.85
2017-11-16T01:39:39.346Z,22.17
2017-11-16T01:42:07.526Z,20.33
2017-11-16T01:44:35.763Z,21.15
2017-11-16T01:47:03.949Z,24.87
2017-11-16T01:49:32.114Z,20.62
2017-11-16T01:52:00.269Z,19.02
2017-11-16T01:54:28.470Z,18.48
2017-11-16T01:56:56.636Z,20.52
2017-11-16T01:59:24.819Z,21.27
2017-11-16T02:01:52.985Z,24.65
2017-11-16T02:04:22.202Z,21.90
2017-11-16T02:06:50.362Z,27.08
2017-11-16T02:09:18.530Z,69.78
2017-11-16T02:11:46.805Z,99.03
2017-11-16T02:14:15.094Z,82.72
2017-11-16T02:16:43.261Z,39.10
2017-11-16T02:19:11.429Z,27.42
2017-11-16T02:21:40.384Z,25.50
2017-11-16T02:24:08.612Z,28.02
2017-11-16T02:26:36.762Z,24.25
2017-11-16T02:29:05.066Z,22.92
2017-11-16T02:31:33.239Z,24.20
2017-11-16T02:34:01.511Z,23.35
2017-11-16T02:36:29.679Z,23.02
2017-11-16T02:38:57.853Z,22.30
2017-11-16T02:41:26.428Z,24.02
2017-11-16T02:43:54.616Z,21.60
2017-11-16T02:46:22.808Z,30.52
2017-11-16T02:48:50.984Z,27.08
2017-11-16T02:51:19.699Z,29.52
2017-11-16T02:53:47.927Z,24.65
2017-11-16T02:56:16.092Z,28.50
2017-11-16T02:58:44.267Z,18.10
2017-11-16T03:01:13.402Z,22.37
2017-11-16T03:03:43.479Z,16.37
2017-11-16T03:06:11.659Z,23.40
2017-11-16T03:08:39.996Z,22.75
2017-11-16T03:11:08.164Z,23.80
2017-11-16T03:13:36.407Z,23.38
2017-11-16T03:16:04.566Z,31.17
2017-11-16T03:18:33.657Z,20.67
2017-11-16T03:21:01.826Z,22.52
2017-11-16T03:23:31.032Z,27.08
2017-11-16T03:25:59.253Z,25.90
2017-11-16T03:28:28.839Z,28.95
2017-11-16T03:30:57.038Z,24.48
2017-11-16T03:33:34.327Z,20.85
2017-11-16T03:36:02.498Z,22.42
2017-11-16T03:38:31.704Z,21.52
2017-11-16T03:40:59.866Z,24.50
2017-11-16T03:43:28.054Z,23.42
2017-11-16T03:45:56.223Z,25.20
2017-11-16T03:48:24.386Z,25.90
2017-11-16T03:50:52.567Z,23.35
2017-11-16T03:53:20.742Z,20.55
2017-11-16T03:55:48.911Z,26.40
2017-11-16T03:58:17.087Z,26.30
2017-11-16T04:00:45.267Z,26.15
2017-11-16T04:03:14.406Z,27.77
2017-11-16T04:05:42.563Z,30.73
2017-11-16T04:08:10.729Z,30.48
2017-11-16T04:10:38.897Z,26.58
2017-11-16T04:13:07.908Z,26.48
2017-11-16T04:15:36.075Z,29.50
2017-11-16T04:18:04.250Z,33.40
2017-11-16T04:20:32.437Z,26.98
2017-11-16T04:23:00.600Z,34.20
2017-11-16T04:25:28.779Z,27.65
2017-11-16T04:27:56.944Z,36.92
2017-11-16T04:30:25.878Z,36.72
2017-11-16T04:32:54.058Z,39.03
2017-11-16T04:35:22.222Z,37.80
2017-11-16T04:37:50.362Z,38.30
2017-11-16T04:40:18.531Z,33.83
2017-11-16T04:42:46.706Z,33.50
2017-11-16T04:45:15.637Z,34.97
2017-11-16T04:47:43.811Z,42.15
2017-11-16T04:50:11.944Z,42.90
2017-11-16T04:52:40.121Z,36.13
2017-11-16T04:55:08.279Z,41.20
2017-11-16T04:57:36.447Z,36.70
2017-11-16T05:00:04.640Z,43.47
2017-11-16T05:02:33.582Z,41.28
2017-11-16T05:05:01.741Z,44.35
2017-11-16T05:07:29.890Z,35.97
2017-11-16T05:09:58.397Z,42.72
2017-11-16T05:12:26.560Z,33.45
2017-11-16T05:14:54.971Z,38.67
2017-11-16T05:17:24.063Z,47.45
2017-11-16T05:19:52.996Z,43.55
2017-11-16T05:22:21.172Z,44.40
2017-11-16T05:24:55.099Z,45.35
2017-11-16T05:27:24.514Z,51.67
2017-11-16T05:29:53.584Z,48.38
2017-11-16T05:32:21.781Z,61.08
2017-11-16T05:34:51.931Z,52.38
2017-11-16T05:37:20.076Z,61.80
2017-11-16T05:39:48.240Z,59.35
2017-11-16T05:42:16.427Z,57.05
2017-11-16T05:44:46.642Z,51.13
2017-11-16T05:47:15.392Z,59.67
2017-11-16T05:49:43.770Z,53.03
2017-11-16T05:52:11.915Z,57.70
2017-11-16T05:54:40.167Z,53.40
2017-11-16T05:57:08.326Z,52.38
2017-11-16T05:59:57.306Z,66.78
2017-11-16T06:02:25.488Z,57.67
2017-11-16T06:04:57.229Z,56.05
2017-11-16T06:07:25.397Z,54.50
2017-11-16T06:09:53.654Z,56.15
2017-11-16T06:12:22.588Z,57.22
2017-11-16T06:14:54.422Z,56.65
2017-11-16T06:17:23.748Z,56.42
2017-11-16T06:19:52.841Z,59.25
2017-11-16T06:22:22.669Z,48.15
2017-11-16T06:24:50.843Z,53.78
2017-11-16T06:27:19.019Z,58.17
2017-11-16T06:29:47.178Z,65.37
2017-11-16T06:32:15.842Z,56.67
2017-11-16T06:34:44.112Z,71.68
2017-11-16T06:37:12.270Z,56.05
2017-11-16T06:39:40.429Z,59.40
2017-11-16T06:42:08.596Z,53.63
2017-11-16T06:44:37.955Z,60.83
2017-11-16T06:47:06.156Z,54.75
2017-11-16T06:49:34.305Z,45.25
2017-11-16T06:52:03.340Z,59.33
2017-11-16T06:54:42.100Z,62.47
2017-11-16T06:57:11.321Z,57.88
2017-11-16T06:59:39.491Z,58.85
2017-11-16T07:02:07.653Z,60.92
2017-11-16T07:04:35.974Z,60.17
2017-11-16T07:07:04.157Z,66.12
2017-11-16T07:09:32.307Z,57.40
2017-11-16T07:12:00.466Z,63.92
2017-11-16T07:14:45.382Z,76.30
2017-11-16T07:17:17.679Z,60.67
2017-11-16T07:19:46.596Z,59.03
2017-11-16T07:22:14.747Z,61.08
2017-11-16T07:24:44.870Z,61.78
2017-11-16T07:27:13.051Z,62.65
2017-11-16T07:29:41.241Z,61.95
2017-11-16T07:32:10.640Z,56.72
2017-11-16T07:34:51.864Z,58.35
2017-11-16T07:40:25.633Z,60.97
2017-11-16T07:42:55.905Z,62.03
2017-11-16T07:45:24.101Z,59.45
2017-11-16T07:47:53.128Z,52.72
2017-11-16T07:50:21.301Z,65.28
2017-11-16T07:52:49.458Z,60.30
2017-11-16T07:55:18.389Z,63.67
2017-11-16T07:57:46.554Z,55.63
2017-11-16T08:00:15.491Z,58.50
2017-11-16T08:02:43.632Z,66.20
2017-11-16T08:05:11.855Z,56.37
2017-11-16T08:07:40.075Z,56.08
2017-11-16T08:10:08.224Z,64.22
2017-11-16T08:12:36.437Z,62.45
2017-11-16T08:15:05.102Z,71.12
2017-11-16T08:17:33.278Z,61.58
2017-11-16T08:20:01.455Z,60.03
2017-11-16T08:22:29.649Z,56.40
2017-11-16T08:27:52.294Z,62.20
2017-11-16T08:30:20.471Z,54.67
2017-11-16T08:32:53.151Z,58.85
2017-11-16T08:35:22.421Z,56.60
2017-11-16T08:37:51.647Z,55.08
2017-11-16T08:40:20.817Z,54.58
2017-11-16T08:42:48.998Z,60.05
2017-11-16T08:45:17.170Z,58.90
2017-11-16T08:47:46.125Z,66.65
2017-11-16T08:50:15.299Z,50.88
2017-11-16T08:52:44.159Z,60.33
2017-11-16T08:55:12.311Z,53.45
2017-11-16T08:57:41.235Z,47.13
2017-11-16T09:00:10.265Z,49.65
2017-11-16T09:02:38.454Z,44.78
2017-11-16T09:05:06.632Z,36.00
2017-11-16T09:07:34.803Z,43.65
2017-11-16T09:10:03.187Z,47.62
2017-11-16T09:12:31.363Z,47.08
2017-11-16T09:15:01.616Z,46.22
2017-11-16T09:17:29.769Z,45.72
2017-11-16T09:19:58.644Z,47.42
2017-11-16T09:22:26.825Z,45.90
2017-11-16T09:24:55.144Z,42.05
2017-11-16T09:27:23.319Z,41.83
2017-11-16T09:29:51.511Z,46.67
2017-11-16T09:32:21.778Z,40.80
2017-11-16T09:34:50.948Z,42.20
2017-11-16T09:37:19.496Z,35.20
2017-11-16T09:39:48.129Z,42.20
2017-11-16T09:42:16.291Z,38.88
2017-11-16T09:44:46.458Z,42.30
2017-11-16T09:47:15.200Z,46.08
2017-11-16T09:49:43.350Z,36.53
2017-11-16T09:52:11.595Z,37.15
2017-11-16T09:54:45.728Z,38.20
2017-11-16T09:57:13.903Z,36.83
2017-11-16T09:59:42.055Z,32.65
2017-11-16T10:02:10.225Z,36.45
2017-11-16T10:04:38.486Z,39.13
2017-11-16T10:07:06.654Z,37.50
2017-11-16T10:09:34.820Z,37.08
2017-11-16T10:12:02.984Z,44.30
2017-11-16T10:14:31.152Z,30.75
2017-11-16T10:16:59.319Z,38.70
2017-11-16T10:19:27.491Z,37.70
2017-11-16T10:21:55.981Z,40.58
2017-11-16T10:24:41.969Z,32.78
2017-11-16T10:27:23.761Z,32.50
2017-11-16T10:29:51.958Z,37.47
2017-11-16T10:32:21.469Z,32.97
2017-11-16T10:35:02.009Z,35.28
2017-11-16T10:37:43.508Z,37.38
2017-11-16T10:40:11.670Z,32.40
2017-11-16T10:42:53.962Z,32.22
2017-11-16T10:45:22.131Z,28.65
2017-11-16T10:47:51.455Z,31.52
2017-11-16T10:50:19.651Z,32.17
2017-11-16T10:52:47.817Z,33.97
2017-11-16T10:55:16.877Z,33.28
2017-11-16T10:57:46.074Z,32.42
2017-11-16T11:00:14.313Z,39.47
2017-11-16T11:02:42.490Z,34.88
2017-11-16T11:05:10.656Z,27.62
2017-11-16T11:07:38.839Z,32.80
2017-11-16T11:10:07.003Z,31.77
2017-11-16T11:12:39.236Z,38.47
2017-11-16T11:15:07.403Z,28.60
2017-11-16T11:17:35.583Z,25.45
2017-11-16T11:20:03.764Z,29.23
2017-11-16T11:22:31.919Z,29.92
2017-11-16T11:25:00.068Z,32.25
2017-11-16T11:27:29.099Z,31.42
2017-11-16T11:29:57.723Z,32.58
2017-11-16T11:32:27.831Z,33.10
2017-11-16T11:35:02.255Z,30.20
2017-11-16T11:37:44.344Z,24.33
2017-11-16T11:40:13.168Z,27.45
2017-11-16T11:42:45.649Z,24.52
2017-11-16T11:45:13.895Z,33.80
2017-11-16T11:47:56.036Z,30.12
2017-11-16T11:53:20.292Z,25.17
2017-11-16T11:56:01.214Z,30.10
2017-11-16T11:58:41.797Z,28.58
2017-11-16T12:01:22.721Z,27.65
2017-11-16T12:03:53.058Z,30.00
2017-11-16T12:06:21.291Z,29.90
2017-11-16T12:08:49.588Z,29.40
2017-11-16T12:11:17.774Z,26.12
2017-11-16T12:13:46.721Z,27.87
2017-11-16T12:16:15.680Z,26.12
2017-11-16T12:18:43.832Z,30.35
2017-11-16T12:21:11.988Z,32.45
2017-11-16T12:23:41.216Z,29.15
2017-11-16T12:26:09.379Z,32.78
2017-11-16T12:28:37.569Z,32.15
2017-11-16T12:31:05.761Z,26.42
2017-11-16T12:33:37.389Z,28.35
2017-11-16T12:36:05.682Z,33.03
2017-11-16T12:38:33.833Z,28.45
2017-11-16T12:41:02.129Z,26.70
2017-11-16T12:43:36.274Z,25.65
2017-11-16T12:46:05.532Z,26.60
2017-11-16T12:48:33.720Z,28.85
2017-11-16T12:51:03.271Z,39.72
2017-11-16T12:53:36.251Z,30.37
2017-11-16T12:56:05.739Z,30.95
2017-11-16T12:58:35.179Z,36.60
2017-11-16T13:01:04.611Z,39.17
2017-11-16T13:03:44.543Z,23.35
2017-11-16T13:06:14.085Z,28.10
2017-11-16T13:08:49.140Z,30.58
2017-11-16T13:11:18.571Z,28.87
2017-11-16T13:13:53.823Z,26.92
2017-11-16T13:16:23.239Z,28.58
2017-11-16T13:18:52.800Z,33.95
2017-11-16T13:21:22.000Z,29.60
2017-11-16T13:23:50.429Z,27.42
2017-11-16T13:26:19.379Z,36.88
2017-11-16T13:28:47.564Z,37.90
2017-11-16T13:31:15.723Z,32.13
2017-11-16T13:33:43.964Z,26.48
2017-11-16T13:36:12.745Z,30.10
2017-11-16T13:38:40.925Z,30.02
2017-11-16T13:41:09.102Z,26.98
2017-11-16T13:43:40.043Z,32.65
2017-11-16T13:46:08.336Z,32.38
2017-11-16T13:48:36.907Z,27.92
2017-11-16T13:51:06.517Z,34.22
2017-11-16T13:53:40.219Z,24.95
2017-11-16T13:56:10.321Z,39.80
2017-11-16T13:58:39.041Z,27.02
2017-11-16T14:01:07.207Z,27.73
2017-11-16T14:03:37.391Z,25.80
2017-11-16T14:06:06.126Z,28.90
2017-11-16T14:08:34.300Z,30.85
2017-11-16T14:11:02.525Z,31.80
2017-11-16T14:13:38.404Z,26.20
2017-11-16T14:16:07.677Z,29.27
2017-11-16T14:18:42.424Z,36.40
2017-11-16T14:21:10.637Z,28.85
2017-11-16T14:23:39.191Z,30.58
2017-11-16T14:26:08.398Z,24.65
2017-11-16T14:28:37.403Z,31.70
2017-11-16T14:31:05.608Z,26.00
2017-11-16T14:33:39.779Z,27.70
2017-11-16T14:36:09.555Z,28.77
2017-11-16T14:38:38.027Z,32.58
2017-11-16T14:41:08.295Z,29.55
2017-11-16T14:43:40.207Z,28.58
2017-11-16T14:46:09.213Z,32.83
2017-11-16T14:48:37.656Z,28.30
2017-11-16T14:51:05.943Z,27.25
2017-11-16T14:53:36.120Z,35.92
2017-11-16T14:56:04.922Z,27.00
2017-11-16T14:58:33.177Z,26.90
2017-11-16T15:01:01.416Z,27.62
2017-11-16T15:03:32.946Z,31.35
2017-11-16T15:06:03.245Z,29.90
2017-11-16T15:08:31.413Z,29.05
2017-11-16T15:10:59.583Z,27.33
2017-11-16T15:13:30.979Z,29.15
2017-11-16T15:16:00.074Z,28.30
2017-11-16T15:18:29.232Z,25.60
2017-11-16T15:20:57.394Z,26.75
2017-11-16T15:23:26.681Z,28.35
2017-11-16T15:25:55.038Z,28.90
2017-11-16T15:28:23.466Z,35.90
2017-11-16T15:30:51.952Z,27.17
2017-11-16T15:33:22.916Z,25.45
2017-11-16T15:35:52.285Z,22.90
2017-11-16T15:38:23.666Z,20.95
2017-11-16T15:40:52.276Z,25.90
2017-11-16T15:43:23.598Z,25.73
2017-11-16T15:45:51.793Z,29.40
2017-11-16T15:48:21.119Z,29.35
2017-11-16T15:50:49.361Z,26.35
2017-11-16T15:53:17.598Z,29.20
2017-11-16T15:55:46.592Z,32.53
2017-11-16T15:58:14.813Z,23.12
2017-11-16T16:00:42.980Z,24.50
2017-11-16T16:03:11.467Z,28.00
2017-11-16T16:05:39.620Z,27.62
2017-11-16T16:08:09.251Z,20.45
2017-11-16T16:10:37.501Z,25.85
2017-11-16T16:13:30.537Z,23.15
2017-11-16T16:16:05.991Z,34.28
2017-11-16T16:18:34.160Z,25.52
2017-11-16T16:21:08.940Z,21.00
2017-11-16T16:23:42.186Z,24.35
2017-11-16T16:26:10.361Z,23.02
2017-11-16T16:28:41.514Z,24.73
2017-11-16T16:31:09.751Z,24.33
2017-11-16T16:33:57.855Z,24.73
2017-11-16T16:36:27.802Z,21.70
2017-11-16T16:38:58.981Z,25.92
2017-11-16T16:41:27.176Z,26.27
2017-11-16T16:43:55.364Z,22.73
2017-11-16T16:46:24.336Z,25.62
2017-11-16T16:48:52.517Z,22.52
2017-11-16T16:51:20.776Z,25.15
2017-11-16T16:53:49.042Z,28.02
2017-11-16T16:56:17.297Z,22.98
2017-11-16T16:58:45.462Z,25.30
2017-11-16T17:01:13.624Z,27.40
2017-11-16T17:03:46.718Z,34.08
2017-11-16T17:06:14.900Z,32.35
2017-11-16T17:08:45.023Z,28.55
2017-11-16T17:11:13.178Z,24.70
2017-11-16T17:13:44.798Z,34.25
2017-11-16T17:16:13.965Z,28.08
2017-11-16T17:18:42.173Z,22.77
2017-11-16T17:21:10.358Z,24.65
2017-11-16T17:23:45.658Z,28.60
2017-11-16T17:26:13.812Z,25.08
2017-11-16T17:28:41.966Z,22.92
2017-11-16T17:31:10.919Z,26.12
2017-11-16T17:33:45.115Z,28.80
2017-11-16T17:36:22.064Z,30.02
2017-11-16T17:38:50.380Z,23.77
2017-11-16T17:41:24.771Z,29.60
2017-11-16T17:43:56.740Z,29.65
2017-11-16T17:46:25.018Z,27.40
2017-11-16T17:48:53.283Z,32.72
2017-11-16T17:51:21.472Z,25.80
2017-11-16T17:53:49.644Z,28.45
2017-11-16T17:56:17.799Z,28.98
2017-11-16T17:58:45.963Z,24.33
2017-11-16T18:01:14.889Z,28.25
2017-11-16T18:03:44.183Z,36.20
2017-11-16T18:06:12.396Z,28.40
2017-11-16T18:08:40.555Z,26.73
2017-11-16T18:11:08.719Z,34.97
2017-11-16T18:13:40.200Z,32.72
2017-11-16T18:16:08.373Z,29.92
2017-11-16T18:18:36.522Z,40.45
2017-11-16T18:21:06.305Z,33.08
2017-11-16T18:23:37.565Z,32.40
2017-11-16T18:26:06.748Z,30.10
2017-11-16T18:28:36.048Z,33.22
2017-11-16T18:31:04.220Z,31.50
2017-11-16T18:33:32.703Z,28.90
2017-11-16T18:36:00.889Z,29.45
2017-11-16T18:38:29.052Z,31.75
2017-11-16T18:40:57.225Z,40.25
2017-11-16T18:43:25.415Z,31.02
2017-11-16T18:45:53.597Z,30.90
2017-11-16T18:48:21.750Z,32.25
2017-11-16T18:50:49.921Z,35.38
2017-11-16T18:53:19.136Z,31.92
2017-11-16T18:55:47.297Z,32.13
2017-11-16T18:58:16.276Z,38.38
2017-11-16T19:00:44.435Z,29.45
2017-11-16T19:03:13.463Z,35.10
2017-11-16T19:05:42.093Z,39.35
2017-11-16T19:08:10.273Z,28.70
2017-11-16T19:10:38.432Z,40.72
2017-11-16T19:13:07.830Z,36.90
2017-11-16T19:15:36.024Z,36.97
2017-11-16T19:18:05.120Z,29.40
2017-11-16T19:20:33.255Z,30.95
2017-11-16T19:23:01.604Z,35.60
2017-11-16T19:25:30.779Z,33.08
2017-11-16T19:27:59.017Z,33.40
2017-11-16T19:30:27.182Z,35.72
2017-11-16T19:32:56.329Z,40.05
2017-11-16T19:35:25.315Z,29.70
2017-11-16T19:37:54.051Z,29.75
2017-11-16T19:40:22.210Z,34.25
2017-11-16T19:42:50.386Z,33.53
2017-11-16T19:45:18.541Z,28.95
2017-11-16T19:47:47.466Z,34.65
2017-11-16T19:50:16.119Z,33.10
2017-11-16T19:52:45.210Z,35.50
2017-11-16T19:55:13.363Z,34.67
2017-11-16T19:57:42.209Z,37.55
2017-11-16T20:00:10.372Z,39.90
2017-11-16T20:02:38.534Z,38.10
2017-11-16T20:05:06.708Z,36.88
2017-11-16T20:07:34.883Z,35.53
2017-11-16T20:10:03.087Z,39.30
2017-11-16T20:12:31.348Z,39.50
2017-11-16T20:15:05.705Z,36.22
2017-11-16T20:17:37.139Z,33.60
2017-11-16T20:20:10.822Z,35.22
2017-11-16T20:22:38.987Z,34.38
2017-11-16T20:25:07.154Z,38.80
2017-11-16T20:27:35.584Z,41.53
2017-11-16T20:30:04.482Z,39.53
2017-11-16T20:32:34.582Z,28.62
2017-11-16T20:35:02.744Z,30.83
2017-11-16T20:37:36.479Z,39.42
2017-11-16T20:43:22.410Z,33.75
2017-11-16T20:45:56.390Z,35.53
2017-11-16T20:48:30.067Z,39.28
2017-11-16T20:51:13.924Z,38.60
2017-11-16T20:53:42.888Z,37.35
2017-11-16T20:56:11.049Z,39.00
2017-11-16T20:58:39.997Z,30.33
2017-11-16T21:01:08.237Z,42.38
2017-11-16T21:03:36.413Z,40.95
2017-11-16T21:06:04.571Z,28.83
2017-11-16T21:08:32.769Z,41.58
2017-11-16T21:11:01.796Z,37.58
2017-11-16T21:13:33.880Z,40.42
2017-11-16T21:16:02.087Z,39.45
2017-11-16T21:18:31.490Z,34.67
2017-11-16T21:20:59.652Z,40.00
2017-11-16T21:23:35.889Z,41.15
2017-11-16T21:26:05.093Z,31.02
2017-11-16T21:28:33.272Z,45.78
2017-11-16T21:31:01.529Z,31.10
2017-11-16T21:33:29.698Z,42.08
2017-11-16T21:35:58.611Z,36.92
2017-11-16T21:38:26.763Z,42.50
2017-11-16T21:40:54.979Z,45.38
2017-11-16T21:43:23.205Z,37.47
2017-11-16T21:45:51.357Z,38.03
2017-11-16T21:48:19.612Z,36.53
2017-11-16T21:50:50.289Z,44.08
2017-11-16T21:53:22.270Z,35.13
2017-11-16T21:55:50.483Z,45.03
2017-11-16T21:58:19.105Z,35.25
2017-11-16T22:00:47.287Z,39.83
2017-11-16T22:03:15.514Z,41.70
2017-11-16T22:05:43.826Z,41.67
2017-11-16T22:08:12.975Z,38.85
2017-11-16T22:10:41.905Z,39.72
2017-11-16T22:13:13.351Z,38.65
2017-11-16T22:15:41.506Z,46.17
2017-11-16T22:18:10.525Z,47.95
2017-11-16T22:20:39.547Z,49.03
2017-11-16T22:23:08.727Z,37.78
2017-11-16T22:25:36.903Z,43.87
2017-11-16T22:28:05.063Z,41.22
2017-11-16T22:30:33.533Z,43.40
2017-11-16T22:33:01.805Z,46.22
2017-11-16T22:35:30.701Z,41.42
2017-11-16T22:37:58.903Z,45.60
2017-11-16T22:40:27.305Z,47.15
2017-11-16T22:42:56.588Z,39.40
2017-11-16T22:45:24.823Z,48.45
2017-11-16T22:47:53.900Z,35.13
2017-11-16T22:50:22.695Z,48.42
2017-11-16T22:52:51.470Z,42.33
2017-11-16T22:55:19.639Z,43.55
2017-11-16T22:57:47.798Z,46.45
2017-11-16T23:00:15.993Z,41.55
2017-11-16T23:02:45.038Z,43.15
2017-11-16T23:05:13.209Z,39.40
2017-11-16T23:07:41.491Z,48.78
2017-11-16T23:10:09.665Z,50.17
2017-11-16T23:12:37.826Z,50.08
2017-11-16T23:15:06.275Z,41.85
2017-11-16T23:17:34.439Z,42.62
2017-11-16T23:20:03.793Z,41.72
2017-11-16T23:22:32.120Z,47.65
2017-11-16T23:25:01.060Z,40.33
2017-11-16T23:27:29.283Z,40.53
2017-11-16T23:29:57.452Z,47.78
2017-11-16T23:32:25.841Z,40.38
2017-11-16T23:34:54.924Z,47.15
2017-11-16T23:37:23.075Z,36.70
2017-11-16T23:39:51.293Z,45.42
2017-11-16T23:42:20.218Z,42.38
2017-11-16T23:44:49.191Z,47.03
2017-11-16T23:47:18.402Z,46.22
2017-11-16T23:49:46.566Z,44.97
2017-11-16T23:52:14.733Z,44.38
2017-11-16T23:54:42.907Z,39.30
2017-11-16T23:57:11.077Z,51.58
2017-11-16T23:59:40.002Z,41.37
